createdAt,value
2018-03-19T00:00:43.666Z,5.47
2018-03-19T00:03:13.420Z,5.23
2018-03-19T00:05:41.742Z,4.77
2018-03-19T00:08:10.012Z,4.00
2018-03-19T00:10:38.268Z,3.50
2018-03-19T00:13:06.567Z,4.60
2018-03-19T00:15:34.943Z,3.93
2018-03-19T00:18:04.902Z,4.53
2018-03-19T00:20:33.961Z,3.27
2018-03-19T00:23:03.776Z,4.67
2018-03-19T00:25:32.819Z,4.63
2018-03-19T00:28:02.242Z,4.30
2018-03-19T00:30:30.473Z,3.70
2018-03-19T00:32:59.508Z,4.20
2018-03-19T00:35:27.809Z,5.22
2018-03-19T00:37:56.066Z,3.57
2018-03-19T00:40:24.299Z,4.20
2018-03-19T00:42:52.633Z,3.97
2018-03-19T00:45:20.861Z,4.10
2018-03-19T00:47:49.209Z,4.17
2018-03-19T00:50:18.750Z,3.83
2018-03-19T00:52:47.742Z,5.57
2018-03-19T00:55:16.051Z,3.93
2018-03-19T00:57:44.446Z,4.47
2018-03-19T01:00:12.711Z,3.50
2018-03-19T01:02:40.970Z,5.07
2018-03-19T01:05:09.302Z,4.53
2018-03-19T01:07:38.362Z,4.27
2018-03-19T01:10:06.634Z,5.10
2018-03-19T01:12:34.903Z,3.63
2018-03-19T01:15:03.182Z,5.07
2018-03-19T01:17:31.461Z,4.40
2018-03-19T01:19:59.737Z,4.40
2018-03-19T01:22:28.038Z,4.93
2018-03-19T01:24:56.277Z,4.50
2018-03-19T01:27:24.580Z,4.93
2018-03-19T01:29:52.896Z,3.93
2018-03-19T01:32:21.952Z,4.57
2018-03-19T01:34:50.231Z,4.00
2018-03-19T01:37:18.522Z,4.23
2018-03-19T01:39:46.878Z,4.23
2018-03-19T01:42:15.218Z,4.57
2018-03-19T01:44:43.458Z,5.17
2018-03-19T01:47:12.519Z,4.23
2018-03-19T01:49:41.734Z,5.20
2018-03-19T01:52:09.962Z,3.50
2018-03-19T01:54:39.242Z,4.97
2018-03-19T01:57:08.409Z,4.20
2018-03-19T01:59:38.192Z,4.43
2018-03-19T02:02:06.667Z,4.40
2018-03-19T02:04:34.959Z,4.23
2018-03-19T02:07:03.229Z,5.27
2018-03-19T02:09:31.486Z,3.83
2018-03-19T02:12:00.626Z,5.23
2018-03-19T02:14:28.894Z,4.33
2018-03-19T02:16:57.131Z,4.40
2018-03-19T02:19:25.397Z,4.57
2018-03-19T02:21:53.695Z,4.20
2018-03-19T02:24:22.035Z,4.35
2018-03-19T02:26:50.293Z,4.43
2018-03-19T02:29:18.539Z,4.83
2018-03-19T02:31:46.828Z,4.50
2018-03-19T02:34:15.098Z,4.50
2018-03-19T02:36:43.481Z,4.63
2018-03-19T02:39:11.717Z,4.30
2018-03-19T02:41:40.034Z,4.70
2018-03-19T02:44:08.474Z,4.07
2018-03-19T02:46:36.717Z,4.57
2018-03-19T02:49:05.820Z,4.17
2018-03-19T02:51:34.879Z,4.97
2018-03-19T02:54:03.169Z,4.80
2018-03-19T02:56:32.206Z,3.63
2018-03-19T02:59:00.496Z,4.97
2018-03-19T03:01:28.739Z,5.18
2018-03-19T03:03:57.043Z,4.77
2018-03-19T03:06:25.315Z,3.87
2018-03-19T03:08:54.596Z,4.68
2018-03-19T03:11:22.888Z,4.33
2018-03-19T03:13:51.158Z,4.90
2018-03-19T03:16:19.466Z,4.73
2018-03-19T03:18:47.706Z,4.90
2018-03-19T03:21:15.948Z,5.20
2018-03-19T03:23:45.045Z,4.00
2018-03-19T03:26:14.133Z,5.43
2018-03-19T03:28:42.358Z,4.80
2018-03-19T03:31:10.671Z,4.57
2018-03-19T03:33:38.936Z,5.17
2018-03-19T03:36:07.199Z,4.43
2018-03-19T03:38:35.506Z,5.30
2018-03-19T03:41:03.785Z,4.30
2018-03-19T03:43:32.014Z,5.00
2018-03-19T03:46:01.729Z,5.57
2018-03-19T03:48:30.011Z,4.32
2018-03-19T03:50:58.385Z,5.90
2018-03-19T03:53:26.683Z,4.17
2018-03-19T03:55:54.983Z,5.37
2018-03-19T03:58:23.232Z,4.60
2018-03-19T04:00:51.477Z,5.80
2018-03-19T04:03:19.759Z,5.83
2018-03-19T04:05:48.038Z,4.87
2018-03-19T04:08:16.283Z,4.97
2018-03-19T04:10:44.623Z,4.90
2018-03-19T04:13:12.895Z,5.50
2018-03-19T04:15:41.173Z,5.07
2018-03-19T04:18:09.449Z,5.30
2018-03-19T04:20:37.720Z,5.23
2018-03-19T04:23:06.027Z,4.90
2018-03-19T04:25:35.080Z,6.03
2018-03-19T04:28:03.344Z,4.07
2018-03-19T04:30:31.638Z,6.10
2018-03-19T04:32:59.915Z,5.03
2018-03-19T04:35:28.170Z,5.73
2018-03-19T04:37:56.591Z,6.07
2018-03-19T04:40:24.920Z,5.10
2018-03-19T04:42:53.226Z,6.57
2018-03-19T04:45:21.483Z,5.27
2018-03-19T04:47:49.782Z,6.87
2018-03-19T04:50:18.050Z,5.57
2018-03-19T04:52:46.299Z,6.20
2018-03-19T04:55:14.694Z,6.43
2018-03-19T04:57:42.971Z,5.30
2018-03-19T05:00:11.456Z,6.28
2018-03-19T05:02:39.744Z,5.30
2018-03-19T05:05:07.991Z,7.40
2018-03-19T05:07:36.299Z,5.97
2018-03-19T05:10:04.532Z,6.23
2018-03-19T05:12:32.813Z,6.93
2018-03-19T05:15:01.068Z,5.68
2018-03-19T05:17:29.350Z,7.00
2018-03-19T05:19:59.362Z,5.47
2018-03-19T05:22:27.800Z,7.40
2018-03-19T05:24:56.080Z,6.67
2018-03-19T05:27:24.459Z,6.57
2018-03-19T05:29:52.830Z,6.77
2018-03-19T05:32:21.082Z,6.87
2018-03-19T05:34:49.385Z,7.00
2018-03-19T05:37:18.911Z,6.50
2018-03-19T05:39:47.169Z,7.20
2018-03-19T05:42:15.558Z,6.03
2018-03-19T05:44:43.903Z,7.40
2018-03-19T05:47:12.211Z,7.20
2018-03-19T05:49:41.231Z,6.83
2018-03-19T05:52:09.492Z,8.00
2018-03-19T05:54:38.860Z,6.63
2018-03-19T05:57:07.108Z,6.80
2018-03-19T05:59:35.368Z,5.90
2018-03-19T06:02:03.654Z,6.27
2018-03-19T06:04:31.939Z,7.00
2018-03-19T06:07:00.218Z,6.33
2018-03-19T06:09:28.497Z,6.73
2018-03-19T06:11:56.782Z,7.30
2018-03-19T06:14:25.055Z,7.93
2018-03-19T06:16:53.335Z,6.70
2018-03-19T06:19:21.637Z,7.37
2018-03-19T06:21:50.006Z,7.20
2018-03-19T06:24:18.330Z,6.47
2018-03-19T06:26:47.361Z,8.30
2018-03-19T06:29:15.646Z,7.33
2018-03-19T06:31:43.882Z,7.57
2018-03-19T06:34:12.144Z,6.70
2018-03-19T06:36:40.484Z,7.37
2018-03-19T06:39:08.738Z,8.03
2018-03-19T06:41:37.037Z,8.30
2018-03-19T06:44:06.847Z,7.75
2018-03-19T06:46:36.643Z,7.50
2018-03-19T06:49:04.884Z,8.00
2018-03-19T06:51:34.481Z,7.57
2018-03-19T06:54:03.520Z,7.47
2018-03-19T06:56:31.772Z,6.90
2018-03-19T06:59:00.053Z,7.63
2018-03-19T07:01:28.432Z,7.03
2018-03-19T07:03:58.174Z,7.10
2018-03-19T07:06:27.228Z,9.53
2018-03-19T07:08:56.242Z,8.73
2018-03-19T07:11:25.400Z,9.03
2018-03-19T07:13:54.411Z,7.70
2018-03-19T07:16:22.721Z,8.57
2018-03-19T07:18:51.058Z,6.77
2018-03-19T07:21:19.310Z,7.37
2018-03-19T07:23:47.573Z,9.03
2018-03-19T07:26:16.633Z,6.87
2018-03-19T07:28:44.926Z,8.40
2018-03-19T07:31:13.231Z,6.50
2018-03-19T07:33:42.296Z,8.20
2018-03-19T07:36:10.559Z,6.27
2018-03-19T07:38:38.821Z,7.17
2018-03-19T07:41:07.106Z,6.77
2018-03-19T07:43:35.400Z,6.77
2018-03-19T07:46:03.694Z,6.55
2018-03-19T07:48:31.992Z,5.90
2018-03-19T07:51:00.244Z,6.97
2018-03-19T07:53:28.510Z,6.00
2018-03-19T07:55:56.797Z,6.60
2018-03-19T07:58:25.109Z,6.33
2018-03-19T08:00:53.412Z,6.20
2018-03-19T08:03:21.738Z,6.70
2018-03-19T08:05:49.978Z,5.47
2018-03-19T08:08:18.288Z,6.95
2018-03-19T08:10:47.314Z,5.50
2018-03-19T08:13:16.550Z,6.07
2018-03-19T08:15:44.824Z,5.77
2018-03-19T08:18:13.212Z,5.55
2018-03-19T08:20:42.660Z,6.07
2018-03-19T08:23:12.834Z,6.23
2018-03-19T08:25:41.086Z,6.00
2018-03-19T08:28:09.376Z,6.40
2018-03-19T08:30:37.605Z,6.53
2018-03-19T08:33:05.924Z,6.00
2018-03-19T08:35:34.193Z,6.47
2018-03-19T08:38:02.473Z,6.10
2018-03-19T08:40:30.861Z,5.80
2018-03-19T08:42:59.125Z,6.77
2018-03-19T08:45:27.394Z,6.00
2018-03-19T08:47:56.619Z,6.83
2018-03-19T08:50:24.854Z,5.83
2018-03-19T08:52:53.121Z,5.50
2018-03-19T08:55:21.400Z,5.43
2018-03-19T08:57:49.635Z,5.20
2018-03-19T09:00:17.909Z,6.28
2018-03-19T09:02:46.168Z,5.13
2018-03-19T09:05:14.398Z,5.80
2018-03-19T09:07:42.767Z,5.80
2018-03-19T09:10:11.813Z,5.87
2018-03-19T09:12:40.196Z,5.53
2018-03-19T09:15:08.437Z,5.40
2018-03-19T09:17:36.726Z,6.03
2018-03-19T09:20:04.988Z,4.80
2018-03-19T09:22:33.272Z,5.97
2018-03-19T09:25:02.383Z,5.80
2018-03-19T09:27:30.602Z,6.27
2018-03-19T09:29:59.631Z,6.47
2018-03-19T09:32:27.900Z,5.70
2018-03-19T09:34:56.190Z,6.90
2018-03-19T09:37:24.426Z,5.03
2018-03-19T09:39:53.465Z,5.13
2018-03-19T09:42:21.755Z,5.90
2018-03-19T09:44:50.009Z,5.00
2018-03-19T09:47:18.333Z,5.83
2018-03-19T09:49:50.392Z,4.63
2018-03-19T09:52:18.629Z,6.37
2018-03-19T09:54:46.897Z,4.60
2018-03-19T09:57:15.186Z,5.73
2018-03-19T09:59:43.438Z,4.93
2018-03-19T10:02:11.762Z,5.60
2018-03-19T10:04:40.051Z,6.27
2018-03-19T10:07:08.303Z,4.63
2018-03-19T10:09:36.545Z,6.67
2018-03-19T10:12:04.858Z,4.63
2018-03-19T10:14:33.099Z,6.87
2018-03-19T10:17:01.338Z,5.57
2018-03-19T10:19:30.377Z,6.43
2018-03-19T10:21:58.642Z,5.90
2018-03-19T10:24:27.050Z,6.30
2018-03-19T10:26:55.338Z,7.07
2018-03-19T10:29:23.583Z,5.30
2018-03-19T10:31:51.836Z,6.80
2018-03-19T10:34:20.213Z,6.63
2018-03-19T10:36:48.532Z,6.03
2018-03-19T10:39:16.948Z,6.70
2018-03-19T10:41:46.008Z,4.90
2018-03-19T10:44:14.226Z,5.40
2018-03-19T10:46:43.253Z,5.50
2018-03-19T10:49:11.523Z,6.10
2018-03-19T10:51:39.807Z,4.77
2018-03-19T10:54:08.293Z,5.70
2018-03-19T10:56:36.556Z,5.73
2018-03-19T10:59:04.849Z,4.93
2018-03-19T11:01:38.646Z,5.73
2018-03-19T11:04:12.534Z,4.40
2018-03-19T11:06:45.032Z,5.00
2018-03-19T11:09:19.785Z,4.93
2018-03-19T11:11:48.703Z,4.00
2018-03-19T11:14:16.955Z,5.20
2018-03-19T11:16:46.776Z,5.00
2018-03-19T11:19:15.061Z,5.27
2018-03-19T11:21:43.425Z,5.47
2018-03-19T11:24:11.666Z,4.73
2018-03-19T11:26:41.072Z,6.57
2018-03-19T11:29:09.916Z,5.50
2018-03-19T11:31:38.979Z,6.40
2018-03-19T11:34:07.236Z,6.07
2018-03-19T11:36:35.524Z,7.10
2018-03-19T11:39:03.757Z,6.97
2018-03-19T11:41:32.023Z,5.67
2018-03-19T11:44:00.274Z,6.90
2018-03-19T11:46:30.099Z,5.90
2018-03-19T11:48:58.324Z,7.10
2018-03-19T11:51:26.592Z,6.70
2018-03-19T11:53:54.903Z,6.90
2018-03-19T11:56:23.125Z,6.30
2018-03-19T11:58:51.800Z,6.70
2018-03-19T12:01:20.890Z,6.60
2018-03-19T12:03:49.256Z,6.37
2018-03-19T12:06:17.594Z,6.40
2018-03-19T12:08:45.820Z,5.50
2018-03-19T12:11:14.094Z,6.23
2018-03-19T12:13:42.351Z,6.80
2018-03-19T12:16:11.535Z,5.85
2018-03-19T12:18:39.856Z,6.60
2018-03-19T12:21:08.119Z,5.60
2018-03-19T12:23:36.398Z,6.53
2018-03-19T12:26:04.678Z,6.03
2018-03-19T12:28:32.927Z,6.00
2018-03-19T12:31:01.951Z,6.73
2018-03-19T12:33:31.014Z,6.55
2018-03-19T12:36:00.766Z,6.40
2018-03-19T12:38:29.752Z,5.83
2018-03-19T12:40:58.067Z,6.63
2018-03-19T12:43:26.320Z,5.43
2018-03-19T12:45:54.592Z,6.87
2018-03-19T12:48:22.848Z,5.07
2018-03-19T12:50:51.124Z,5.10
2018-03-19T12:53:19.429Z,6.03
2018-03-19T12:55:47.701Z,5.63
2018-03-19T12:58:16.038Z,6.83
2018-03-19T13:00:44.397Z,5.73
2018-03-19T13:03:12.652Z,6.07
2018-03-19T13:05:41.019Z,5.73
2018-03-19T13:08:09.301Z,5.95
2018-03-19T13:10:37.558Z,6.67
2018-03-19T13:13:05.826Z,4.87
2018-03-19T13:15:34.150Z,6.80
2018-03-19T13:18:02.410Z,6.20
2018-03-19T13:20:30.675Z,6.40
2018-03-19T13:22:58.895Z,6.60
2018-03-19T13:25:27.957Z,5.23
2018-03-19T13:27:56.230Z,5.90
2018-03-19T13:30:24.526Z,4.77
2018-03-19T13:32:52.849Z,6.00
2018-03-19T13:35:21.134Z,4.77
2018-03-19T13:37:49.365Z,5.77
2018-03-19T13:40:18.530Z,5.83
2018-03-19T13:42:46.794Z,5.40
2018-03-19T13:45:15.082Z,6.27
2018-03-19T13:47:43.320Z,5.40
2018-03-19T13:50:12.381Z,6.90
2018-03-19T13:52:40.639Z,5.50
2018-03-19T13:55:08.881Z,5.97
2018-03-19T13:57:37.106Z,5.80
2018-03-19T14:00:06.305Z,5.53
2018-03-19T14:02:34.573Z,5.80
2018-03-19T14:05:02.857Z,5.80
2018-03-19T14:07:31.123Z,6.27
2018-03-19T14:09:59.415Z,5.87
2018-03-19T14:12:27.700Z,6.80
2018-03-19T14:14:55.930Z,5.67
2018-03-19T14:17:24.228Z,6.97
2018-03-19T14:19:52.518Z,6.17
2018-03-19T14:22:20.762Z,5.87
2018-03-19T14:24:49.007Z,6.40
2018-03-19T14:27:17.290Z,5.30
2018-03-19T14:29:45.579Z,6.93
2018-03-19T14:32:13.810Z,6.13
2018-03-19T14:34:42.860Z,5.15
2018-03-19T14:37:11.151Z,7.20
2018-03-19T14:39:39.394Z,5.07
2018-03-19T14:42:07.714Z,6.63
2018-03-19T14:44:35.972Z,6.20
2018-03-19T14:47:04.206Z,6.23
2018-03-19T14:49:32.447Z,5.63
2018-03-19T14:52:01.503Z,5.62
2018-03-19T14:54:29.843Z,6.53
2018-03-19T14:56:58.929Z,5.00
2018-03-19T14:59:27.184Z,6.63
2018-03-19T15:01:55.461Z,4.53
2018-03-19T15:04:23.825Z,6.70
2018-03-19T15:06:52.087Z,6.30
2018-03-19T15:09:20.371Z,6.10
2018-03-19T15:11:49.949Z,6.27
2018-03-19T15:14:18.259Z,5.43
2018-03-19T15:16:46.637Z,6.60
2018-03-19T15:19:14.903Z,4.90
2018-03-19T15:21:43.149Z,6.00
2018-03-19T15:24:11.410Z,4.73
2018-03-19T15:26:40.446Z,6.00
2018-03-19T15:29:08.718Z,6.90
2018-03-19T15:31:36.982Z,7.70
2018-03-19T15:34:05.237Z,6.12
2018-03-19T15:36:33.549Z,5.23
2018-03-19T15:39:01.845Z,6.23
2018-03-19T15:41:30.111Z,6.05
2018-03-19T15:43:58.365Z,5.43
2018-03-19T15:46:26.627Z,6.30
2018-03-19T15:48:54.853Z,5.30
2018-03-19T15:51:23.176Z,6.00
2018-03-19T15:53:51.411Z,5.30
2018-03-19T15:56:19.681Z,5.77
2018-03-19T15:58:47.954Z,5.75
2018-03-19T16:01:16.200Z,5.40
2018-03-19T16:03:44.473Z,7.18
2018-03-19T16:06:12.733Z,5.93
2018-03-19T16:08:41.009Z,6.28
2018-03-19T16:11:09.266Z,6.00
2018-03-19T16:13:38.362Z,6.50
2018-03-19T16:16:06.765Z,6.03
2018-03-19T16:18:35.031Z,4.97
2018-03-19T16:21:03.270Z,6.90
2018-03-19T16:23:31.584Z,4.80
2018-03-19T16:25:59.864Z,6.17
2018-03-19T16:28:29.474Z,4.78
2018-03-19T16:30:57.801Z,6.53
2018-03-19T16:33:26.009Z,5.90
2018-03-19T16:35:54.287Z,5.67
2018-03-19T16:38:23.371Z,7.30
2018-03-19T16:40:52.397Z,5.70
2018-03-19T16:43:20.682Z,6.50
2018-03-19T16:45:48.965Z,5.70
2018-03-19T16:48:17.202Z,6.80
2018-03-19T16:50:45.466Z,6.07
2018-03-19T16:53:14.512Z,6.50
2018-03-19T16:55:42.778Z,6.50
2018-03-19T16:58:11.045Z,5.85
2018-03-19T17:00:39.341Z,8.07
2018-03-19T17:03:09.031Z,9.20
2018-03-19T17:05:37.318Z,10.70
2018-03-19T17:08:05.693Z,9.13
2018-03-19T17:10:33.947Z,8.63
2018-03-19T17:13:02.248Z,9.67
2018-03-19T17:15:30.544Z,8.37
2018-03-19T17:17:58.819Z,9.75
2018-03-19T17:20:27.061Z,8.27
2018-03-19T17:22:55.335Z,8.40
2018-03-19T17:25:23.581Z,8.13
2018-03-19T17:27:52.620Z,7.70
2018-03-19T17:30:20.940Z,7.87
2018-03-19T17:32:50.676Z,6.80
2018-03-19T17:35:18.992Z,8.13
2018-03-19T17:37:48.477Z,8.00
2018-03-19T17:40:16.738Z,8.80
2018-03-19T17:42:45.056Z,8.63
2018-03-19T17:45:13.322Z,9.47
2018-03-19T17:47:41.564Z,8.50
2018-03-19T17:50:09.880Z,7.80
2018-03-19T17:52:38.115Z,8.87
2018-03-19T17:55:06.364Z,8.03
2018-03-19T17:57:34.651Z,8.90
2018-03-19T18:00:02.924Z,7.87
2018-03-19T18:02:31.198Z,9.47
2018-03-19T18:04:59.450Z,9.03
2018-03-19T18:07:27.684Z,8.43
2018-03-19T18:09:55.986Z,9.03
2018-03-19T18:12:24.301Z,7.73
2018-03-19T18:14:52.583Z,8.30
2018-03-19T18:17:20.893Z,7.60
2018-03-19T18:19:49.178Z,8.57
2018-03-19T18:22:17.440Z,9.63
2018-03-19T18:24:45.759Z,8.93
2018-03-19T18:27:14.071Z,9.40
2018-03-19T18:29:43.130Z,9.07
2018-03-19T18:32:11.398Z,9.90
2018-03-19T18:34:39.668Z,9.10
2018-03-19T18:37:07.914Z,8.27
2018-03-19T18:39:36.200Z,7.57
2018-03-19T18:42:04.506Z,7.70
2018-03-19T18:44:32.781Z,8.07
2018-03-19T18:47:01.118Z,6.93
2018-03-19T18:49:29.401Z,7.93
2018-03-19T18:51:57.695Z,7.23
2018-03-19T18:54:26.019Z,7.70
2018-03-19T18:56:54.298Z,8.00
2018-03-19T18:59:22.618Z,7.20
2018-03-19T19:01:50.898Z,8.03
2018-03-19T19:04:19.200Z,9.00
2018-03-19T19:06:48.275Z,8.90
2018-03-19T19:09:16.574Z,8.77
2018-03-19T19:11:46.528Z,8.63
2018-03-19T19:14:14.801Z,9.50
2018-03-19T19:16:43.132Z,8.13
2018-03-19T19:19:11.430Z,10.00
2018-03-19T19:21:39.687Z,9.73
2018-03-19T19:24:09.470Z,10.93
2018-03-19T19:26:37.795Z,10.57
2018-03-19T19:29:07.025Z,9.13
2018-03-19T19:31:35.351Z,8.17
2018-03-19T19:34:03.641Z,9.30
2018-03-19T19:36:32.715Z,8.10
2018-03-19T19:39:01.007Z,7.13
2018-03-19T19:41:29.274Z,7.13
2018-03-19T19:43:57.560Z,6.60
2018-03-19T19:46:25.887Z,7.30
2018-03-19T19:48:54.893Z,7.10
2018-03-19T19:51:23.144Z,7.23
2018-03-19T19:53:51.441Z,8.23
2018-03-19T19:56:20.479Z,8.00
2018-03-19T19:58:48.765Z,8.23
2018-03-19T20:01:17.062Z,7.37
2018-03-19T20:03:46.253Z,9.40
2018-03-19T20:06:15.283Z,8.02
2018-03-19T20:08:43.605Z,8.43
2018-03-19T20:11:12.688Z,8.80
2018-03-19T20:13:40.942Z,6.40
2018-03-19T20:16:09.245Z,7.80
2018-03-19T20:18:37.481Z,7.40
2018-03-19T20:21:05.774Z,7.67
2018-03-19T20:23:34.163Z,7.87
2018-03-19T20:26:02.462Z,7.40
2018-03-19T20:28:30.752Z,8.30
2018-03-19T20:30:59.858Z,7.27
2018-03-19T20:33:28.893Z,8.10
2018-03-19T20:35:57.176Z,7.60
2018-03-19T20:38:25.746Z,8.43
2018-03-19T20:40:54.028Z,7.70
2018-03-19T20:43:22.318Z,8.30
2018-03-19T20:45:50.626Z,8.17
2018-03-19T20:48:19.694Z,7.83
2018-03-19T20:50:47.951Z,8.63
2018-03-19T20:53:16.224Z,8.20
2018-03-19T20:55:44.516Z,9.03
2018-03-19T20:58:12.757Z,7.70
2018-03-19T21:00:41.052Z,7.97
2018-03-19T21:03:09.343Z,8.47
2018-03-19T21:05:37.589Z,8.20
2018-03-19T21:08:05.873Z,8.73
2018-03-19T21:10:34.187Z,7.30
2018-03-19T21:13:02.455Z,9.60
2018-03-19T21:15:30.743Z,7.90
2018-03-19T21:17:59.061Z,8.57
2018-03-19T21:20:27.321Z,8.23
2018-03-19T21:22:55.656Z,7.97
2018-03-19T21:25:23.954Z,9.00
2018-03-19T21:27:53.002Z,8.25
2018-03-19T21:30:21.329Z,9.20
2018-03-19T21:32:50.422Z,8.27
2018-03-19T21:35:19.478Z,7.67
2018-03-19T21:37:48.970Z,7.93
2018-03-19T21:40:17.268Z,7.20
2018-03-19T21:42:45.531Z,7.77
2018-03-19T21:45:13.788Z,7.40
2018-03-19T21:47:42.137Z,7.77
2018-03-19T21:50:11.177Z,6.40
2018-03-19T21:52:39.429Z,7.60
2018-03-19T21:55:07.731Z,6.97
2018-03-19T21:57:36.004Z,6.23
2018-03-19T22:00:04.280Z,7.60
2018-03-19T22:02:32.605Z,6.67
2018-03-19T22:05:00.874Z,8.33
2018-03-19T22:07:30.017Z,6.30
2018-03-19T22:09:58.403Z,6.95
2018-03-19T22:12:26.662Z,6.80
2018-03-19T22:14:54.953Z,6.80
2018-03-19T22:17:23.202Z,8.27
2018-03-19T22:19:51.430Z,7.13
2018-03-19T22:22:19.745Z,7.63
2018-03-19T22:24:48.188Z,6.83
2018-03-19T22:27:16.493Z,7.43
2018-03-19T22:29:45.378Z,7.33
2018-03-19T22:32:14.452Z,6.80
2018-03-19T22:34:42.735Z,6.80
2018-03-19T22:37:10.989Z,7.67
2018-03-19T22:39:39.310Z,7.67
2018-03-19T22:42:08.376Z,6.50
2018-03-19T22:44:36.616Z,8.15
2018-03-19T22:47:04.895Z,7.47
2018-03-19T22:49:33.195Z,7.20
2018-03-19T22:52:01.430Z,8.48
2018-03-19T22:54:30.904Z,7.87
2018-03-19T22:56:59.239Z,7.73
2018-03-19T22:59:27.485Z,7.00
2018-03-19T23:01:55.810Z,7.80
2018-03-19T23:04:37.423Z,7.80
2018-03-19T23:07:06.544Z,9.90
2018-03-19T23:09:34.880Z,7.40
2018-03-19T23:12:03.259Z,8.60
2018-03-19T23:14:32.964Z,8.10
2018-03-19T23:17:01.267Z,9.53
2018-03-19T23:19:30.304Z,8.00
2018-03-19T23:21:58.542Z,8.23
2018-03-19T23:24:26.856Z,9.50
2018-03-19T23:26:55.130Z,8.80
2018-03-19T23:29:23.404Z,9.37
2018-03-19T23:31:51.720Z,8.57
2018-03-19T23:34:20.197Z,8.73
2018-03-19T23:36:48.477Z,8.67
2018-03-19T23:39:17.498Z,9.37
2018-03-19T23:41:45.810Z,9.23
2018-03-19T23:44:14.057Z,7.03
2018-03-19T23:46:42.302Z,8.80
2018-03-19T23:49:11.372Z,9.73
2018-03-19T23:51:40.119Z,10.00
2018-03-19T23:54:08.379Z,8.47
2018-03-19T23:56:36.653Z,9.53
2018-03-19T23:59:04.907Z,9.27
